createdAt,value
2018-03-25T00:00:28.510Z,16.43
2018-03-25T00:02:56.306Z,15.57
2018-03-25T00:05:24.052Z,16.90
2018-03-25T00:07:51.887Z,15.40
2018-03-25T00:10:19.770Z,15.27
2018-03-25T00:12:47.580Z,15.77
2018-03-25T00:15:15.307Z,15.17
2018-03-25T00:17:43.126Z,14.23
2018-03-25T00:20:10.937Z,15.90
2018-03-25T00:22:38.716Z,15.10
2018-03-25T00:25:06.440Z,17.33
2018-03-25T00:27:34.220Z,15.80
2018-03-25T00:30:02.055Z,17.20
2018-03-25T00:32:29.788Z,16.40
2018-03-25T00:34:57.630Z,15.93
2018-03-25T00:37:25.367Z,16.30
2018-03-25T00:39:53.489Z,15.53
2018-03-25T00:42:21.247Z,16.27
2018-03-25T00:44:49.070Z,15.17
2018-03-25T00:47:16.809Z,14.73
2018-03-25T00:49:44.637Z,14.70
2018-03-25T00:52:12.374Z,16.67
2018-03-25T00:54:40.241Z,16.30
2018-03-25T00:57:07.957Z,16.20
2018-03-25T00:59:35.914Z,16.40
2018-03-25T01:02:03.633Z,16.53
2018-03-25T01:04:32.080Z,15.83
2018-03-25T01:06:59.712Z,15.47
2018-03-25T01:09:27.566Z,15.53
2018-03-25T01:11:55.265Z,16.30
2018-03-25T01:14:23.097Z,15.47
2018-03-25T01:16:50.833Z,16.20
2018-03-25T01:19:18.654Z,17.03
2018-03-25T01:21:46.565Z,16.33
2018-03-25T01:24:14.337Z,16.10
2018-03-25T01:26:42.073Z,16.93
2018-03-25T01:29:09.902Z,15.83
2018-03-25T01:31:37.650Z,16.03
2018-03-25T01:34:05.473Z,16.70
2018-03-25T01:36:33.222Z,17.10
2018-03-25T01:39:01.044Z,17.73
2018-03-25T01:41:28.779Z,16.90
2018-03-25T01:43:56.627Z,17.47
2018-03-25T01:46:24.352Z,17.70
2018-03-25T01:48:52.181Z,17.00
2018-03-25T01:51:19.927Z,17.87
2018-03-25T01:53:47.700Z,18.43
2018-03-25T01:56:15.488Z,18.10
2018-03-25T01:58:43.331Z,18.70
2018-03-25T02:01:11.067Z,18.07
2018-03-25T02:03:38.891Z,17.40
2018-03-25T02:06:06.637Z,16.60
2018-03-25T02:08:34.423Z,16.40
2018-03-25T02:11:02.256Z,16.23
2018-03-25T02:13:31.110Z,16.30
2018-03-25T02:15:58.946Z,16.20
2018-03-25T02:18:26.692Z,17.50
2018-03-25T02:20:54.547Z,14.83
2018-03-25T02:23:22.256Z,15.33
2018-03-25T02:25:50.080Z,16.70
2018-03-25T02:28:17.819Z,16.67
2018-03-25T02:30:45.643Z,17.70
2018-03-25T02:33:13.401Z,18.13
2018-03-25T02:35:41.134Z,18.23
2018-03-25T02:38:08.858Z,17.60
2018-03-25T02:40:36.696Z,17.90
2018-03-25T02:43:04.434Z,17.90
2018-03-25T02:45:32.266Z,19.83
2018-03-25T02:48:00.017Z,18.73
2018-03-25T02:50:27.839Z,19.70
2018-03-25T02:52:55.576Z,17.73
2018-03-25T02:55:23.407Z,19.53
2018-03-25T02:57:51.081Z,20.50
2018-03-25T03:00:18.815Z,20.23
2018-03-25T03:02:46.503Z,20.90
2018-03-25T03:05:14.234Z,20.50
2018-03-25T03:07:41.916Z,18.00
2018-03-25T03:10:09.635Z,18.63
2018-03-25T03:12:37.322Z,18.87
2018-03-25T03:15:05.058Z,17.93
2018-03-25T03:17:32.756Z,18.90
2018-03-25T03:20:00.536Z,17.23
2018-03-25T03:22:28.246Z,15.27
2018-03-25T03:24:55.969Z,16.40
2018-03-25T03:27:23.657Z,16.10
2018-03-25T03:29:51.470Z,17.97
2018-03-25T03:32:19.408Z,16.40
2018-03-25T03:34:47.253Z,17.30
2018-03-25T03:37:14.981Z,16.97
2018-03-25T03:39:42.721Z,17.73
2018-03-25T03:42:10.446Z,15.23
2018-03-25T03:44:38.269Z,16.33
2018-03-25T03:47:06.014Z,17.47
2018-03-25T03:49:33.841Z,16.20
2018-03-25T03:52:01.594Z,16.50
2018-03-25T03:54:29.368Z,16.43
2018-03-25T03:56:57.198Z,18.50
2018-03-25T03:59:24.938Z,17.30
2018-03-25T04:01:52.796Z,17.83
2018-03-25T04:04:20.524Z,18.63
2018-03-25T04:06:48.332Z,17.80
2018-03-25T04:09:16.083Z,18.73
2018-03-25T04:11:43.909Z,18.30
2018-03-25T04:14:11.645Z,17.70
2018-03-25T04:16:39.379Z,18.33
2018-03-25T04:19:07.118Z,18.20
2018-03-25T04:21:35.002Z,18.17
2018-03-25T04:24:02.786Z,18.17
2018-03-25T04:26:30.619Z,18.23
2018-03-25T04:28:58.355Z,18.77
2018-03-25T04:31:26.184Z,19.10
2018-03-25T04:33:53.924Z,18.57
2018-03-25T04:36:21.752Z,18.23
2018-03-25T04:38:49.523Z,20.03
2018-03-25T04:41:17.326Z,19.00
2018-03-25T04:43:45.068Z,18.37
2018-03-25T04:46:12.898Z,19.87
2018-03-25T04:48:40.655Z,19.60
2018-03-25T04:51:08.469Z,19.40
2018-03-25T04:53:36.207Z,18.70
2018-03-25T04:56:04.116Z,19.27
2018-03-25T04:58:31.882Z,18.90
2018-03-25T05:00:59.596Z,16.93
2018-03-25T05:03:27.346Z,18.10
2018-03-25T05:05:55.169Z,18.60
2018-03-25T05:08:22.921Z,18.53
2018-03-25T05:10:50.755Z,16.70
2018-03-25T05:13:18.448Z,17.60
2018-03-25T05:15:46.196Z,18.17
2018-03-25T05:18:13.889Z,17.37
2018-03-25T05:20:41.669Z,17.40
2018-03-25T05:23:09.368Z,18.40
2018-03-25T05:25:37.087Z,18.53
2018-03-25T05:28:04.821Z,17.03
2018-03-25T05:30:32.542Z,16.93
2018-03-25T05:33:00.232Z,18.40
2018-03-25T05:35:27.941Z,17.30
2018-03-25T05:37:55.677Z,17.47
2018-03-25T05:40:23.375Z,17.70
2018-03-25T05:42:51.126Z,17.67
2018-03-25T05:45:18.861Z,17.53
2018-03-25T05:47:46.698Z,17.23
2018-03-25T05:50:14.449Z,19.00
2018-03-25T05:52:42.267Z,16.57
2018-03-25T05:55:10.009Z,17.80
2018-03-25T05:57:37.738Z,16.97
2018-03-25T06:00:05.505Z,18.80
2018-03-25T06:02:33.311Z,18.43
2018-03-25T06:05:01.059Z,17.60
2018-03-25T06:07:28.869Z,17.40
2018-03-25T06:09:56.559Z,17.50
2018-03-25T06:12:24.301Z,17.13
2018-03-25T06:14:51.981Z,18.10
2018-03-25T06:17:19.721Z,17.50
2018-03-25T06:19:47.456Z,18.10
2018-03-25T06:22:15.278Z,17.23
2018-03-25T06:24:43.008Z,18.77
2018-03-25T06:27:10.744Z,17.70
2018-03-25T06:29:38.492Z,18.07
2018-03-25T06:32:06.322Z,19.03
2018-03-25T06:34:34.053Z,19.93
2018-03-25T06:37:01.885Z,18.43
2018-03-25T06:39:29.645Z,19.10
2018-03-25T06:41:57.498Z,21.40
2018-03-25T06:44:25.352Z,20.73
2018-03-25T06:46:53.132Z,19.03
2018-03-25T06:49:20.839Z,19.60
2018-03-25T06:51:48.605Z,23.63
2018-03-25T06:54:16.430Z,23.67
2018-03-25T06:56:44.186Z,24.70
2018-03-25T06:59:11.912Z,24.50
2018-03-25T07:01:39.775Z,24.97
2018-03-25T07:04:07.474Z,25.83
2018-03-25T07:06:35.336Z,24.63
2018-03-25T07:09:03.163Z,23.47
2018-03-25T07:11:30.989Z,24.50
2018-03-25T07:13:58.755Z,26.50
2018-03-25T07:16:26.523Z,25.57
2018-03-25T07:18:54.336Z,25.23
2018-03-25T07:21:22.108Z,25.40
2018-03-25T07:23:49.893Z,25.73
2018-03-25T07:26:17.650Z,25.40
2018-03-25T07:28:45.470Z,24.90
2018-03-25T07:31:13.207Z,25.33
2018-03-25T07:33:40.949Z,26.10
2018-03-25T07:36:08.683Z,26.30
2018-03-25T07:38:36.511Z,26.17
2018-03-25T07:41:04.283Z,23.50
2018-03-25T07:43:32.117Z,24.50
2018-03-25T07:45:59.814Z,24.67
2018-03-25T07:48:27.653Z,24.20
2018-03-25T07:50:55.403Z,24.53
2018-03-25T07:53:23.271Z,23.30
2018-03-25T07:55:51.042Z,25.83
2018-03-25T07:58:18.880Z,25.10
2018-03-25T08:00:46.620Z,24.10
2018-03-25T08:03:14.443Z,26.73
2018-03-25T08:05:42.240Z,25.03
2018-03-25T08:08:10.033Z,24.20
2018-03-25T08:10:37.767Z,24.27
2018-03-25T08:13:05.605Z,24.30
2018-03-25T08:15:33.340Z,26.07
2018-03-25T08:18:01.174Z,24.90
2018-03-25T08:20:28.933Z,25.57
2018-03-25T08:22:56.774Z,26.17
2018-03-25T08:25:24.479Z,26.03
2018-03-25T08:27:52.358Z,25.97
2018-03-25T08:30:20.191Z,24.70
2018-03-25T08:32:47.990Z,25.77
2018-03-25T08:35:15.754Z,25.43
2018-03-25T08:37:43.575Z,25.23
2018-03-25T08:40:11.294Z,27.33
2018-03-25T08:42:39.147Z,27.20
2018-03-25T08:45:06.894Z,25.73
2018-03-25T08:47:34.707Z,26.20
2018-03-25T08:50:02.421Z,24.70
2018-03-25T08:52:30.203Z,25.47
2018-03-25T08:54:57.929Z,25.00
2018-03-25T08:57:25.689Z,25.33
2018-03-25T08:59:53.461Z,26.23
2018-03-25T09:02:21.182Z,25.07
2018-03-25T09:04:48.968Z,23.90
2018-03-25T09:07:16.721Z,22.93
2018-03-25T09:09:44.494Z,20.30
2018-03-25T09:12:12.245Z,20.80
2018-03-25T09:14:39.987Z,21.13
2018-03-25T09:17:07.710Z,19.47
2018-03-25T09:19:35.454Z,19.43
2018-03-25T09:22:03.254Z,20.53
2018-03-25T09:24:31.050Z,21.00
2018-03-25T09:26:58.790Z,20.83
2018-03-25T09:29:26.601Z,20.23
2018-03-25T09:31:54.426Z,20.70
2018-03-25T09:34:22.203Z,20.87
2018-03-25T09:36:49.926Z,20.60
2018-03-25T09:39:17.706Z,20.07
2018-03-25T09:41:45.446Z,20.10
2018-03-25T09:44:13.206Z,20.37
2018-03-25T09:46:40.923Z,20.17
2018-03-25T09:49:08.710Z,20.90
2018-03-25T09:51:36.420Z,20.83
2018-03-25T09:54:04.250Z,19.30
2018-03-25T09:56:31.967Z,20.10
2018-03-25T09:58:59.713Z,19.07
2018-03-25T10:01:46.065Z,19.27
2018-03-25T10:04:13.822Z,19.03
2018-03-25T10:06:41.591Z,19.37
2018-03-25T10:09:09.406Z,19.53
2018-03-25T10:11:37.152Z,18.80
2018-03-25T10:14:04.991Z,20.30
2018-03-25T10:16:32.699Z,19.50
2018-03-25T10:19:00.580Z,19.03
2018-03-25T10:21:28.492Z,20.50
2018-03-25T10:23:56.634Z,19.87
2018-03-25T10:26:25.313Z,19.23
2018-03-25T10:28:53.128Z,18.60
2018-03-25T10:31:20.813Z,20.63
2018-03-25T10:33:48.594Z,22.00
2018-03-25T10:36:16.327Z,21.57
2018-03-25T10:38:44.081Z,22.50
2018-03-25T10:41:11.825Z,21.27
2018-03-25T10:43:39.539Z,16.20
2018-03-25T10:46:07.606Z,19.27
2018-03-25T10:48:35.365Z,16.50
2018-03-25T10:51:03.102Z,11.50
2018-03-25T10:53:30.938Z,15.47
2018-03-25T10:55:58.729Z,13.80
2018-03-25T10:58:26.475Z,14.17
2018-03-25T11:00:54.330Z,11.80
2018-03-25T11:03:22.054Z,13.53
2018-03-25T11:05:49.893Z,12.63
2018-03-25T11:08:17.633Z,10.37
2018-03-25T11:10:45.452Z,11.10
2018-03-25T11:13:13.151Z,11.60
2018-03-25T11:15:40.895Z,11.87
2018-03-25T11:18:08.618Z,11.03
2018-03-25T11:20:36.540Z,11.73
2018-03-25T11:23:04.538Z,11.33
2018-03-25T11:25:32.355Z,13.10
2018-03-25T11:28:00.096Z,12.53
2018-03-25T11:30:27.973Z,12.07
2018-03-25T11:32:55.798Z,12.70
2018-03-25T11:35:23.562Z,12.33
2018-03-25T11:37:51.294Z,12.70
2018-03-25T11:40:19.070Z,12.17
2018-03-25T11:42:46.761Z,11.13
2018-03-25T11:45:14.539Z,9.93
2018-03-25T11:47:42.223Z,10.47
2018-03-25T11:50:10.015Z,11.10
2018-03-25T11:52:37.749Z,11.57
2018-03-25T11:55:05.536Z,10.40
2018-03-25T11:57:33.257Z,10.20
2018-03-25T12:00:01.027Z,9.53
2018-03-25T12:02:28.765Z,10.60
2018-03-25T12:04:56.534Z,10.87
2018-03-25T12:07:24.373Z,10.93
2018-03-25T12:09:52.214Z,9.70
2018-03-25T12:12:20.005Z,9.10
2018-03-25T12:14:47.879Z,8.33
2018-03-25T12:17:15.583Z,9.37
2018-03-25T12:19:43.350Z,9.60
2018-03-25T12:22:11.113Z,10.77
2018-03-25T12:24:38.854Z,10.63
2018-03-25T12:27:06.575Z,11.80
2018-03-25T12:29:34.323Z,10.83
2018-03-25T12:32:02.032Z,11.93
2018-03-25T12:34:29.747Z,12.20
2018-03-25T12:36:57.554Z,13.03
2018-03-25T12:39:25.242Z,12.70
2018-03-25T12:41:52.970Z,13.57
2018-03-25T12:44:20.717Z,12.57
2018-03-25T12:46:49.202Z,13.50
2018-03-25T12:49:16.946Z,12.30
2018-03-25T12:51:44.690Z,12.90
2018-03-25T12:54:12.428Z,11.63
2018-03-25T12:56:40.194Z,10.93
2018-03-25T12:59:07.930Z,11.83
2018-03-25T13:01:35.746Z,10.87
2018-03-25T13:04:03.491Z,11.93
2018-03-25T13:06:31.255Z,12.17
2018-03-25T13:08:58.974Z,12.10
2018-03-25T13:11:26.738Z,11.67
2018-03-25T13:13:54.471Z,11.23
2018-03-25T13:16:22.197Z,11.83
2018-03-25T13:18:49.922Z,10.60
2018-03-25T13:21:17.738Z,9.30
2018-03-25T13:23:45.454Z,9.80
2018-03-25T13:26:13.223Z,11.40
2018-03-25T13:28:40.944Z,9.83
2018-03-25T13:31:08.746Z,10.43
2018-03-25T13:33:36.475Z,10.60
2018-03-25T13:36:04.252Z,10.60
2018-03-25T13:38:31.963Z,10.30
2018-03-25T13:40:59.703Z,8.70
2018-03-25T13:43:27.415Z,10.13
2018-03-25T13:45:55.150Z,10.27
2018-03-25T13:48:22.907Z,10.60
2018-03-25T13:50:50.727Z,9.87
2018-03-25T13:53:18.463Z,9.97
2018-03-25T13:55:46.220Z,10.93
2018-03-25T13:58:13.974Z,11.13
2018-03-25T14:00:41.721Z,11.17
2018-03-25T14:03:09.446Z,10.23
2018-03-25T14:05:37.206Z,10.67
2018-03-25T14:08:04.943Z,10.23
2018-03-25T14:10:32.819Z,9.80
2018-03-25T14:13:00.586Z,10.60
2018-03-25T14:15:28.411Z,10.60
2018-03-25T14:17:56.142Z,9.50
2018-03-25T14:20:23.906Z,9.90
2018-03-25T14:22:51.671Z,10.37
2018-03-25T14:25:19.396Z,10.83
2018-03-25T14:27:47.139Z,10.20
2018-03-25T14:30:14.865Z,10.50
2018-03-25T14:32:42.654Z,10.90
2018-03-25T14:35:10.408Z,10.20
2018-03-25T14:37:38.194Z,10.63
2018-03-25T14:40:05.951Z,11.47
2018-03-25T14:42:33.716Z,10.90
2018-03-25T14:45:01.462Z,11.00
2018-03-25T14:47:29.316Z,10.90
2018-03-25T14:49:57.071Z,10.23
2018-03-25T14:52:24.815Z,11.60
2018-03-25T14:54:52.534Z,10.90
2018-03-25T14:57:20.291Z,10.13
2018-03-25T14:59:48.031Z,10.50
2018-03-25T15:02:15.803Z,10.77
2018-03-25T15:04:43.550Z,10.50
2018-03-25T15:07:11.275Z,9.97
2018-03-25T15:09:39.010Z,11.30
2018-03-25T15:12:06.761Z,10.07
2018-03-25T15:14:34.470Z,10.00
2018-03-25T15:17:02.243Z,10.53
2018-03-25T15:19:29.967Z,10.97
2018-03-25T15:21:57.770Z,9.70
2018-03-25T15:24:25.538Z,10.90
2018-03-25T15:26:53.311Z,9.63
2018-03-25T15:29:21.034Z,9.30
2018-03-25T15:31:48.809Z,10.47
2018-03-25T15:34:16.510Z,9.10
2018-03-25T15:36:44.258Z,9.10
2018-03-25T15:39:11.979Z,10.20
2018-03-25T15:41:39.760Z,9.20
2018-03-25T15:44:07.495Z,10.03
2018-03-25T15:46:35.246Z,8.53
2018-03-25T15:49:02.981Z,10.90
2018-03-25T15:51:30.742Z,9.63
2018-03-25T15:53:58.461Z,11.57
2018-03-25T15:56:26.251Z,13.87
2018-03-25T15:58:53.997Z,14.20
2018-03-25T16:01:21.730Z,12.80
2018-03-25T16:03:49.520Z,15.90
2018-03-25T16:06:17.264Z,17.47
2018-03-25T16:08:45.022Z,15.07
2018-03-25T16:11:12.755Z,15.80
2018-03-25T16:13:40.492Z,14.30
2018-03-25T16:16:08.177Z,14.27
2018-03-25T16:18:35.939Z,12.00
2018-03-25T16:21:03.703Z,17.67
2018-03-25T16:23:31.495Z,18.60
2018-03-25T16:25:59.215Z,12.63
2018-03-25T16:28:26.971Z,10.83
2018-03-25T16:30:54.703Z,14.10
2018-03-25T16:33:22.458Z,12.17
2018-03-25T16:35:50.170Z,11.87
2018-03-25T16:38:17.930Z,10.97
2018-03-25T16:40:45.655Z,8.83
2018-03-25T16:43:13.403Z,11.37
2018-03-25T16:45:41.126Z,11.57
2018-03-25T16:48:08.910Z,12.87
2018-03-25T16:50:36.629Z,17.50
2018-03-25T16:53:04.425Z,10.93
2018-03-25T16:55:32.122Z,14.40
2018-03-25T16:57:59.894Z,11.60
2018-03-25T17:00:27.629Z,13.37
2018-03-25T17:02:55.413Z,11.87
2018-03-25T17:05:23.124Z,9.97
2018-03-25T17:07:50.894Z,13.70
2018-03-25T17:10:18.634Z,12.70
2018-03-25T17:12:46.397Z,19.83
2018-03-25T17:15:14.183Z,13.20
2018-03-25T17:17:41.929Z,15.13
2018-03-25T17:20:09.664Z,12.03
2018-03-25T17:22:37.435Z,12.77
2018-03-25T17:25:05.214Z,20.40
2018-03-25T17:27:33.027Z,34.67
2018-03-25T17:30:00.811Z,15.43
2018-03-25T17:32:28.663Z,13.03
2018-03-25T17:34:56.473Z,21.23
2018-03-25T17:37:24.323Z,25.17
2018-03-25T17:39:52.143Z,25.50
2018-03-25T17:42:20.026Z,21.27
2018-03-25T17:44:47.824Z,21.80
2018-03-25T17:47:15.543Z,15.40
2018-03-25T17:49:43.316Z,12.53
2018-03-25T17:52:11.004Z,13.90
2018-03-25T17:54:38.755Z,13.53
2018-03-25T17:57:06.506Z,12.40
2018-03-25T17:59:34.294Z,13.57
2018-03-25T18:02:02.011Z,14.17
2018-03-25T18:04:29.767Z,14.80
2018-03-25T18:06:57.459Z,13.43
2018-03-25T18:09:25.202Z,12.63
2018-03-25T18:11:52.909Z,14.10
2018-03-25T18:14:20.672Z,13.00
2018-03-25T18:16:48.394Z,13.73
2018-03-25T18:19:16.154Z,12.80
2018-03-25T18:21:43.901Z,13.20
2018-03-25T18:24:11.662Z,12.20
2018-03-25T18:26:39.375Z,12.97
2018-03-25T18:29:07.095Z,12.67
2018-03-25T18:31:34.799Z,13.63
2018-03-25T18:34:02.530Z,15.40
2018-03-25T18:36:30.225Z,13.53
2018-03-25T18:38:57.979Z,14.53
2018-03-25T18:41:25.699Z,13.00
2018-03-25T18:43:53.461Z,16.07
2018-03-25T18:46:21.202Z,15.30
2018-03-25T18:48:48.934Z,16.00
2018-03-25T18:51:16.656Z,15.63
2018-03-25T18:53:44.413Z,16.30
2018-03-25T18:56:12.143Z,15.97
2018-03-25T18:58:39.895Z,14.80
2018-03-25T19:01:07.600Z,17.23
2018-03-25T19:03:35.443Z,16.80
2018-03-25T19:06:03.147Z,13.10
2018-03-25T19:08:30.983Z,14.33
2018-03-25T19:10:58.622Z,13.50
2018-03-25T19:13:26.346Z,14.53
2018-03-25T19:15:54.087Z,14.20
2018-03-25T19:18:21.939Z,16.33
2018-03-25T19:20:49.719Z,14.67
2018-03-25T19:23:17.436Z,14.93
2018-03-25T19:25:45.202Z,15.63
2018-03-25T19:28:12.916Z,15.17
2018-03-25T19:30:40.705Z,15.40
2018-03-25T19:33:08.446Z,18.00
2018-03-25T19:35:36.187Z,15.20
2018-03-25T19:38:03.922Z,16.27
2018-03-25T19:40:31.724Z,14.27
2018-03-25T19:42:59.464Z,13.63
2018-03-25T19:45:27.235Z,12.73
2018-03-25T19:47:54.983Z,13.90
2018-03-25T19:50:22.762Z,12.40
2018-03-25T19:52:50.501Z,13.20
2018-03-25T19:55:18.233Z,13.20
2018-03-25T19:57:45.998Z,13.13
2018-03-25T20:00:13.823Z,13.77
2018-03-25T20:02:41.586Z,13.50
2018-03-25T20:05:09.406Z,13.03
2018-03-25T20:07:37.132Z,14.30
2018-03-25T20:10:04.947Z,14.40
2018-03-25T20:12:32.690Z,15.53
2018-03-25T20:15:00.467Z,15.27
2018-03-25T20:17:28.187Z,14.13
2018-03-25T20:19:55.941Z,14.70
2018-03-25T20:22:23.710Z,15.60
2018-03-25T20:24:51.451Z,15.77
2018-03-25T20:27:19.166Z,13.70
2018-03-25T20:29:46.942Z,16.07
2018-03-25T20:32:14.644Z,14.70
2018-03-25T20:34:42.443Z,14.70
2018-03-25T20:37:10.133Z,14.80
2018-03-25T20:39:37.853Z,14.10
2018-03-25T20:42:05.558Z,14.50
2018-03-25T20:44:33.273Z,14.90
2018-03-25T20:47:00.998Z,14.37
2018-03-25T20:49:28.780Z,16.10
2018-03-25T20:51:56.503Z,15.07
2018-03-25T20:54:24.322Z,14.93
2018-03-25T20:56:52.042Z,15.50
2018-03-25T20:59:19.818Z,16.77
2018-03-25T21:01:47.551Z,16.27
2018-03-25T21:04:15.250Z,15.37
2018-03-25T21:06:43.027Z,15.80
2018-03-25T21:09:10.740Z,15.10
2018-03-25T21:11:38.480Z,16.30
2018-03-25T21:14:06.203Z,14.43
2018-03-25T21:16:33.959Z,15.10
2018-03-25T21:19:01.710Z,15.33
2018-03-25T21:21:29.550Z,15.70
2018-03-25T21:23:57.295Z,15.07
2018-03-25T21:26:25.432Z,15.87
2018-03-25T21:28:53.265Z,14.63
2018-03-25T21:31:21.114Z,14.00
2018-03-25T21:33:48.817Z,14.63
2018-03-25T21:36:16.669Z,15.10
2018-03-25T21:38:44.515Z,14.70
2018-03-25T21:41:12.362Z,14.87
2018-03-25T21:43:40.179Z,14.50
2018-03-25T21:46:08.014Z,15.23
2018-03-25T21:48:35.806Z,14.57
2018-03-25T21:51:03.698Z,14.60
2018-03-25T21:53:31.498Z,15.20
2018-03-25T21:55:59.347Z,14.20
2018-03-25T21:58:27.106Z,14.73
2018-03-25T22:00:54.931Z,14.80
2018-03-25T22:03:22.670Z,15.10
2018-03-25T22:05:50.508Z,15.00
2018-03-25T22:08:18.212Z,14.47
2018-03-25T22:10:46.083Z,14.10
2018-03-25T22:13:13.873Z,14.30
2018-03-25T22:15:41.709Z,14.30
2018-03-25T22:18:09.452Z,14.00
2018-03-25T22:20:37.350Z,16.47
2018-03-25T22:23:05.130Z,14.03
2018-03-25T22:25:32.944Z,14.57
2018-03-25T22:28:00.697Z,14.00
2018-03-25T22:30:28.526Z,14.37
2018-03-25T22:32:56.276Z,14.27
2018-03-25T22:35:24.113Z,14.97
2018-03-25T22:37:51.935Z,15.47
2018-03-25T22:40:19.774Z,14.00
2018-03-25T22:42:47.640Z,14.87
2018-03-25T22:45:15.427Z,14.67
2018-03-25T22:47:43.216Z,14.80
2018-03-25T22:50:10.994Z,14.57
2018-03-25T22:52:38.794Z,15.50
2018-03-25T22:55:06.529Z,14.97
2018-03-25T22:57:34.346Z,16.00
2018-03-25T23:00:02.109Z,17.00
2018-03-25T23:02:29.918Z,16.57
2018-03-25T23:04:57.677Z,17.50
2018-03-25T23:07:25.709Z,19.20
2018-03-25T23:09:53.458Z,19.47
2018-03-25T23:12:21.307Z,19.17
2018-03-25T23:14:49.121Z,19.70
2018-03-25T23:17:16.930Z,19.20
2018-03-25T23:19:44.676Z,20.60
2018-03-25T23:22:14.481Z,21.77
2018-03-25T23:24:42.184Z,20.40
2018-03-25T23:27:10.009Z,20.50
2018-03-25T23:29:37.791Z,20.50
2018-03-25T23:32:05.609Z,20.37
2018-03-25T23:34:33.342Z,20.67
2018-03-25T23:37:01.178Z,20.00
2018-03-25T23:39:28.892Z,21.07
2018-03-25T23:41:57.022Z,20.07
2018-03-25T23:44:24.783Z,19.10
2018-03-25T23:46:52.588Z,18.40
2018-03-25T23:49:20.345Z,17.90
2018-03-25T23:51:48.180Z,18.93
2018-03-25T23:54:15.912Z,17.80
2018-03-25T23:56:43.736Z,18.80
2018-03-25T23:59:11.485Z,20.43
